createdAt,value
2016-12-05T00:00:23.829Z,61.24
2016-12-05T00:00:49.911Z,61.15
2016-12-05T00:01:16.025Z,61.15
2016-12-05T00:01:42.116Z,61.33
2016-12-05T00:02:08.200Z,60.77
2016-12-05T00:02:34.310Z,61.52
2016-12-05T00:03:00.410Z,61.43
2016-12-05T00:03:26.592Z,61.33
2016-12-05T00:03:52.671Z,61.43
2016-12-05T00:04:18.772Z,61.52
2016-12-05T00:04:44.887Z,61.05
2016-12-05T00:05:10.969Z,61.52
2016-12-05T00:05:37.062Z,61.33
2016-12-05T00:06:03.159Z,61.43
2016-12-05T00:06:29.237Z,61.9
2016-12-05T00:06:55.332Z,61.99
2016-12-05T00:07:21.424Z,61.61
2016-12-05T00:07:47.503Z,61.43
2016-12-05T00:08:13.593Z,61.9
2016-12-05T00:08:39.691Z,61.9
2016-12-05T00:09:05.774Z,61.93
2016-12-05T00:09:31.855Z,61.46
2016-12-05T00:09:57.956Z,61.36
2016-12-05T00:10:24.043Z,61.46
2016-12-05T00:10:50.122Z,61.08
2016-12-05T00:11:16.216Z,61.46
2016-12-05T00:11:42.300Z,61.46
2016-12-05T00:12:08.398Z,60.89
2016-12-05T00:12:34.478Z,60.51
2016-12-05T00:13:00.564Z,60.32
2016-12-05T00:13:26.660Z,60.41
2016-12-05T00:13:52.745Z,60.32
2016-12-05T00:14:18.824Z,60.48
2016-12-05T00:14:44.925Z,60.29
2016-12-05T00:15:11.013Z,60.48
2016-12-05T00:15:37.093Z,60.58
2016-12-05T00:16:03.186Z,60.41
2016-12-05T00:16:29.280Z,60.29
2016-12-05T00:16:55.367Z,60.29
2016-12-05T00:17:21.454Z,60.67
2016-12-05T00:17:47.536Z,60.19
2016-12-05T00:18:13.631Z,60.1
2016-12-05T00:18:39.718Z,60.29
2016-12-05T00:19:05.802Z,60.19
2016-12-05T00:19:31.890Z,60.48
2016-12-05T00:19:57.985Z,60.67
2016-12-05T00:20:24.060Z,60.77
2016-12-05T00:20:50.148Z,60.58
2016-12-05T00:21:16.244Z,60.51
2016-12-05T00:21:42.325Z,60.22
2016-12-05T00:22:08.411Z,60.48
2016-12-05T00:22:34.498Z,60.32
2016-12-05T00:23:00.589Z,60.13
2016-12-05T00:23:26.683Z,60.22
2016-12-05T00:23:52.758Z,60.03
2016-12-05T00:24:18.851Z,60.41
2016-12-05T00:24:44.939Z,60.13
2016-12-05T00:25:11.022Z,60.38
2016-12-05T00:25:37.106Z,59.72
2016-12-05T00:26:03.199Z,59.63
2016-12-05T00:26:29.280Z,59.53
2016-12-05T00:26:55.359Z,59.53
2016-12-05T00:27:21.456Z,60.29
2016-12-05T00:27:47.539Z,60.19
2016-12-05T00:28:13.623Z,60.19
2016-12-05T00:28:39.717Z,60.38
2016-12-05T00:29:05.810Z,60.38
2016-12-05T00:29:31.891Z,60.19
2016-12-05T00:29:57.985Z,60.48
2016-12-05T00:30:24.074Z,60.38
2016-12-05T00:30:50.152Z,60.29
2016-12-05T00:31:16.244Z,60.38
2016-12-05T00:31:42.340Z,60.48
2016-12-05T00:32:08.413Z,61.15
2016-12-05T00:32:34.500Z,60.58
2016-12-05T00:33:00.599Z,60.96
2016-12-05T00:33:26.686Z,60.77
2016-12-05T00:33:52.881Z,61.33
2016-12-05T00:34:18.957Z,60.77
2016-12-05T00:34:45.042Z,60.96
2016-12-05T00:35:11.138Z,61.71
2016-12-05T00:35:37.218Z,61.36
2016-12-05T00:36:03.308Z,61.52
2016-12-05T00:36:29.402Z,61.43
2016-12-05T00:36:55.486Z,60.8
2016-12-05T00:37:21.561Z,60.58
2016-12-05T00:37:47.662Z,60.58
2016-12-05T00:38:13.752Z,59.72
2016-12-05T00:38:39.829Z,59.63
2016-12-05T00:39:05.923Z,60.48
2016-12-05T00:39:32.002Z,60.1
2016-12-05T00:39:58.103Z,60.19
2016-12-05T00:40:24.182Z,60.19
2016-12-05T00:40:50.263Z,60.38
2016-12-05T00:41:16.363Z,60.38
2016-12-05T00:41:42.448Z,60.61
2016-12-05T00:42:08.530Z,60.51
2016-12-05T00:42:34.625Z,60.67
2016-12-05T00:43:00.712Z,60.51
2016-12-05T00:43:26.793Z,60.19
2016-12-05T00:43:52.885Z,60.51
2016-12-05T00:44:18.983Z,60.61
2016-12-05T00:44:45.064Z,60.48
2016-12-05T00:45:11.149Z,60.48
2016-12-05T00:45:37.231Z,59.75
2016-12-05T00:46:03.323Z,60.41
2016-12-05T00:46:29.408Z,60.41
2016-12-05T00:46:55.486Z,59.56
2016-12-05T00:47:21.576Z,59.66
2016-12-05T00:47:47.668Z,59.94
2016-12-05T00:48:13.746Z,59.63
2016-12-05T00:48:39.834Z,59.56
2016-12-05T00:49:05.923Z,59.66
2016-12-05T00:49:32.005Z,59.47
2016-12-05T00:49:58.093Z,59.66
2016-12-05T00:50:24.187Z,59.75
2016-12-05T00:50:50.273Z,59.25
2016-12-05T00:51:16.353Z,59.06
2016-12-05T00:51:42.452Z,59.16
2016-12-05T00:52:08.540Z,59.25
2016-12-05T00:52:34.621Z,59.34
2016-12-05T00:53:00.719Z,59.25
2016-12-05T00:53:26.804Z,59.72
2016-12-05T00:53:52.883Z,59.63
2016-12-05T00:54:18.978Z,60
2016-12-05T00:54:45.071Z,59.91
2016-12-05T00:55:11.151Z,59.63
2016-12-05T00:55:37.240Z,59.25
2016-12-05T00:56:03.316Z,59.53
2016-12-05T00:56:29.410Z,59.44
2016-12-05T00:56:55.498Z,59.25
2016-12-05T00:57:21.577Z,59.06
2016-12-05T00:57:47.668Z,58.97
2016-12-05T00:58:13.762Z,59.25
2016-12-05T00:58:39.841Z,59.25
2016-12-05T00:59:05.929Z,59.72
2016-12-05T00:59:32.029Z,59.91
2016-12-05T00:59:58.128Z,59.06
2016-12-05T01:00:24.215Z,59.06
2016-12-05T01:00:50.310Z,59.34
2016-12-05T01:01:16.394Z,59.06
2016-12-05T01:01:42.490Z,59.44
2016-12-05T01:02:08.563Z,59.81
2016-12-05T01:02:34.653Z,58.97
2016-12-05T01:03:00.751Z,59.53
2016-12-05T01:03:26.832Z,58.87
2016-12-05T01:03:52.915Z,58.87
2016-12-05T01:04:19.010Z,58.78
2016-12-05T01:04:45.096Z,58.87
2016-12-05T01:05:11.181Z,59.06
2016-12-05T01:05:37.282Z,58.87
2016-12-05T01:06:03.369Z,59.72
2016-12-05T01:06:29.450Z,59.81
2016-12-05T01:06:55.547Z,59.44
2016-12-05T01:07:21.632Z,58.97
2016-12-05T01:07:47.727Z,58.68
2016-12-05T01:08:13.810Z,59.25
2016-12-05T01:08:39.892Z,59.81
2016-12-05T01:09:05.987Z,59.81
2016-12-05T01:09:32.071Z,59.91
2016-12-05T01:09:58.155Z,59.63
2016-12-05T01:10:24.247Z,60.1
2016-12-05T01:10:50.337Z,59.63
2016-12-05T01:11:16.418Z,59.44
2016-12-05T01:11:42.511Z,59.91
2016-12-05T01:12:08.601Z,59.81
2016-12-05T01:12:34.684Z,59.72
2016-12-05T01:13:00.767Z,59.53
2016-12-05T01:13:26.853Z,60
2016-12-05T01:13:52.943Z,60.48
2016-12-05T01:14:19.030Z,60.19
2016-12-05T01:14:45.111Z,60.19
2016-12-05T01:15:11.203Z,60.48
2016-12-05T01:15:37.297Z,60.19
2016-12-05T01:16:03.373Z,60.38
2016-12-05T01:16:29.462Z,60.1
2016-12-05T01:16:55.557Z,60.19
2016-12-05T01:17:21.641Z,60.38
2016-12-05T01:17:47.729Z,60.29
2016-12-05T01:18:13.811Z,60.48
2016-12-05T01:18:39.904Z,59.91
2016-12-05T01:19:05.998Z,59.63
2016-12-05T01:19:32.072Z,59.72
2016-12-05T01:19:58.184Z,60.19
2016-12-05T01:20:24.278Z,60.29
2016-12-05T01:20:50.360Z,59.81
2016-12-05T01:21:16.443Z,60.1
2016-12-05T01:21:42.535Z,59.81
2016-12-05T01:22:08.618Z,59.72
2016-12-05T01:22:34.700Z,59.91
2016-12-05T01:23:00.794Z,59.63
2016-12-05T01:23:26.883Z,59.81
2016-12-05T01:23:52.973Z,60
2016-12-05T01:24:19.152Z,60.38
2016-12-05T01:24:45.238Z,60.19
2016-12-05T01:25:11.333Z,60.48
2016-12-05T01:25:37.413Z,60.38
2016-12-05T01:26:03.492Z,60.48
2016-12-05T01:26:29.589Z,60.1
2016-12-05T01:26:55.675Z,60.1
2016-12-05T01:27:21.758Z,59.63
2016-12-05T01:27:47.854Z,59.63
2016-12-05T01:28:13.950Z,59.63
2016-12-05T01:28:40.032Z,60.29
2016-12-05T01:29:06.119Z,60.19
2016-12-05T01:29:32.203Z,60.1
2016-12-05T01:29:58.302Z,59.63
2016-12-05T01:30:24.388Z,59.34
2016-12-05T01:30:50.469Z,59.63
2016-12-05T01:31:16.566Z,59.25
2016-12-05T01:31:42.656Z,59.25
2016-12-05T01:32:08.730Z,59.16
2016-12-05T01:32:34.823Z,59.72
2016-12-05T01:33:00.912Z,59.25
2016-12-05T01:33:26.993Z,59.16
2016-12-05T01:33:53.081Z,58.68
2016-12-05T01:34:19.173Z,59.25
2016-12-05T01:34:45.254Z,59.81
2016-12-05T01:35:11.339Z,59.44
2016-12-05T01:35:37.432Z,59.53
2016-12-05T01:36:03.516Z,59.53
2016-12-05T01:36:29.592Z,59.63
2016-12-05T01:36:55.690Z,60
2016-12-05T01:37:21.771Z,60
2016-12-05T01:37:47.853Z,59.91
2016-12-05T01:38:13.942Z,60
2016-12-05T01:38:40.031Z,59.63
2016-12-05T01:39:06.114Z,59.81
2016-12-05T01:39:32.204Z,60.19
2016-12-05T01:39:58.302Z,60.29
2016-12-05T01:40:24.382Z,60.29
2016-12-05T01:40:50.466Z,60.29
2016-12-05T01:41:16.547Z,60.29
2016-12-05T01:41:42.643Z,60.38
2016-12-05T01:42:08.731Z,60.67
2016-12-05T01:42:34.808Z,60.19
2016-12-05T01:43:00.906Z,60.38
2016-12-05T01:43:26.998Z,60.67
2016-12-05T01:43:53.076Z,60.1
2016-12-05T01:44:19.163Z,60.48
2016-12-05T01:44:45.252Z,60.48
2016-12-05T01:45:11.332Z,60.19
2016-12-05T01:45:37.433Z,60.1
2016-12-05T01:46:03.516Z,60.48
2016-12-05T01:46:29.608Z,60.67
2016-12-05T01:46:55.705Z,60.19
2016-12-05T01:47:21.782Z,60.1
2016-12-05T01:47:47.870Z,60.19
2016-12-05T01:48:13.965Z,60.1
2016-12-05T01:48:40.041Z,60.58
2016-12-05T01:49:06.131Z,60.38
2016-12-05T01:49:32.223Z,60
2016-12-05T01:49:58.307Z,60.38
2016-12-05T01:50:24.388Z,60.58
2016-12-05T01:50:50.484Z,60.19
2016-12-05T01:51:16.568Z,60.48
2016-12-05T01:51:42.665Z,60.48
2016-12-05T01:52:08.742Z,60.58
2016-12-05T01:52:34.826Z,60.48
2016-12-05T01:53:00.923Z,60.48
2016-12-05T01:53:27.006Z,60.38
2016-12-05T01:53:53.088Z,60.38
2016-12-05T01:54:19.185Z,60.48
2016-12-05T01:54:45.367Z,60.48
2016-12-05T01:55:11.466Z,60.77
2016-12-05T01:55:37.559Z,60.48
2016-12-05T01:56:03.650Z,60.86
2016-12-05T01:56:29.731Z,61.05
2016-12-05T01:56:55.822Z,60.96
2016-12-05T01:57:21.905Z,60.86
2016-12-05T01:57:48.002Z,60.96
2016-12-05T01:58:14.093Z,61.15
2016-12-05T01:58:40.172Z,60.86
2016-12-05T01:59:06.273Z,60.67
2016-12-05T01:59:32.367Z,60.58
2016-12-05T01:59:58.443Z,60.67
2016-12-05T02:00:24.539Z,61.05
2016-12-05T02:00:50.629Z,60.67
2016-12-05T02:01:16.703Z,60.67
2016-12-05T02:01:42.789Z,60.38
2016-12-05T02:02:08.883Z,60.38
2016-12-05T02:02:34.960Z,60.48
2016-12-05T02:03:01.052Z,60.58
2016-12-05T02:03:27.135Z,60.86
2016-12-05T02:03:53.229Z,61.15
2016-12-05T02:04:19.324Z,61.05
2016-12-05T02:04:45.402Z,60.58
2016-12-05T02:05:11.491Z,60.48
2016-12-05T02:05:37.587Z,60.38
2016-12-05T02:06:03.663Z,60.38
2016-12-05T02:06:29.752Z,60.38
2016-12-05T02:06:55.848Z,60.48
2016-12-05T02:07:21.931Z,60.38
2016-12-05T02:07:48.014Z,60.58
2016-12-05T02:08:14.108Z,60.48
2016-12-05T02:08:40.190Z,60.86
2016-12-05T02:09:06.284Z,60.96
2016-12-05T02:09:32.366Z,61.05
2016-12-05T02:09:58.452Z,60.77
2016-12-05T02:10:24.547Z,60.67
2016-12-05T02:10:50.632Z,60.67
2016-12-05T02:11:16.714Z,60.48
2016-12-05T02:11:42.813Z,60.77
2016-12-05T02:12:08.901Z,60.58
2016-12-05T02:12:34.983Z,60.38
2016-12-05T02:13:01.075Z,61.11
2016-12-05T02:13:27.162Z,61.05
2016-12-05T02:13:53.251Z,60.86
2016-12-05T02:14:19.337Z,60.58
2016-12-05T02:14:45.416Z,60.86
2016-12-05T02:15:11.518Z,60.67
2016-12-05T02:15:37.603Z,60.96
2016-12-05T02:16:03.684Z,60.86
2016-12-05T02:16:29.777Z,60.48
2016-12-05T02:16:55.877Z,60.48
2016-12-05T02:17:21.975Z,60.67
2016-12-05T02:17:48.068Z,60.86
2016-12-05T02:18:14.164Z,60.86
2016-12-05T02:18:40.244Z,60.67
2016-12-05T02:19:06.340Z,60.67
2016-12-05T02:19:32.433Z,60.96
2016-12-05T02:19:58.535Z,60.96
2016-12-05T02:20:24.626Z,61.05
2016-12-05T02:20:50.718Z,60.96
2016-12-05T02:21:16.803Z,61.52
2016-12-05T02:21:42.887Z,61.52
2016-12-05T02:22:08.988Z,61.43
2016-12-05T02:22:35.069Z,61.33
2016-12-05T02:23:01.152Z,61.43
2016-12-05T02:23:27.254Z,61.43
2016-12-05T02:23:53.340Z,60.96
2016-12-05T02:24:19.418Z,60.48
2016-12-05T02:24:45.610Z,60.58
2016-12-05T02:25:11.696Z,60.48
2016-12-05T02:25:37.793Z,60.29
2016-12-05T02:26:03.879Z,60.19
2016-12-05T02:26:29.957Z,60.1
2016-12-05T02:26:56.052Z,60.48
2016-12-05T02:27:22.140Z,60.38
2016-12-05T02:27:48.224Z,60.38
2016-12-05T02:28:14.316Z,60.38
2016-12-05T02:28:40.404Z,60.29
2016-12-05T02:29:06.480Z,60.67
2016-12-05T02:29:32.566Z,60.48
2016-12-05T02:29:58.659Z,60.48
2016-12-05T02:30:24.740Z,60.67
2016-12-05T02:30:50.832Z,60.48
2016-12-05T02:31:16.915Z,60.36
2016-12-05T02:31:43.006Z,60.19
2016-12-05T02:32:09.099Z,60.38
2016-12-05T02:32:35.170Z,60.48
2016-12-05T02:33:01.261Z,60.38
2016-12-05T02:33:27.352Z,60.19
2016-12-05T02:33:53.430Z,60.48
2016-12-05T02:34:19.518Z,60.64
2016-12-05T02:34:45.614Z,60.17
2016-12-05T02:35:11.699Z,60.26
2016-12-05T02:35:37.778Z,60.07
2016-12-05T02:36:03.868Z,60.07
2016-12-05T02:36:29.958Z,60.17
2016-12-05T02:36:56.051Z,60.36
2016-12-05T02:37:22.133Z,60.55
2016-12-05T02:37:48.225Z,61.21
2016-12-05T02:38:14.317Z,60.93
2016-12-05T02:38:40.398Z,61.49
2016-12-05T02:39:06.479Z,61.68
2016-12-05T02:39:32.577Z,61.4
2016-12-05T02:39:58.661Z,61.3
2016-12-05T02:40:24.738Z,61.21
2016-12-05T02:40:50.835Z,61.49
2016-12-05T02:41:16.920Z,61.61
2016-12-05T02:41:43.010Z,61.52
2016-12-05T02:42:09.099Z,61.68
2016-12-05T02:42:35.179Z,61.43
2016-12-05T02:43:01.278Z,61.05
2016-12-05T02:43:27.366Z,61.33
2016-12-05T02:43:53.441Z,61.15
2016-12-05T02:44:19.534Z,60.86
2016-12-05T02:44:45.624Z,60.48
2016-12-05T02:45:11.706Z,60.67
2016-12-05T02:45:37.799Z,60.67
2016-12-05T02:46:03.888Z,60.58
2016-12-05T02:46:29.960Z,60.48
2016-12-05T02:46:56.052Z,60.38
2016-12-05T02:47:22.131Z,60.1
2016-12-05T02:47:48.227Z,60.64
2016-12-05T02:48:14.316Z,60.17
2016-12-05T02:48:40.398Z,60.45
2016-12-05T02:49:06.490Z,60.55
2016-12-05T02:49:32.587Z,60.55
2016-12-05T02:49:58.663Z,60.45
2016-12-05T02:50:24.751Z,60.64
2016-12-05T02:50:50.844Z,60.83
2016-12-05T02:51:16.922Z,61.02
2016-12-05T02:51:43.006Z,60.36
2016-12-05T02:52:09.099Z,60.45
2016-12-05T02:52:35.182Z,60.17
2016-12-05T02:53:01.275Z,60.07
2016-12-05T02:53:27.354Z,60.17
2016-12-05T02:53:53.442Z,60.36
2016-12-05T02:54:19.535Z,60.07
2016-12-05T02:54:45.616Z,60.07
2016-12-05T02:55:11.729Z,60.55
2016-12-05T02:55:37.825Z,60.55
2016-12-05T02:56:03.909Z,60.17
2016-12-05T02:56:29.982Z,60.17
2016-12-05T02:56:56.113Z,60.83
2016-12-05T02:57:22.195Z,60.45
2016-12-05T02:57:48.277Z,60.36
2016-12-05T02:58:14.366Z,60.55
2016-12-05T02:58:40.445Z,60.07
2016-12-05T02:59:06.545Z,60.55
2016-12-05T02:59:32.628Z,60.45
2016-12-05T02:59:58.705Z,60.17
2016-12-05T03:00:24.802Z,60.26
2016-12-05T03:00:50.887Z,60.45
2016-12-05T03:01:16.962Z,60.26
2016-12-05T03:01:43.060Z,60.45
2016-12-05T03:02:09.176Z,60.36
2016-12-05T03:02:35.257Z,60.45
2016-12-05T03:03:01.348Z,60.64
2016-12-05T03:03:27.435Z,60.26
2016-12-05T03:03:53.513Z,60.45
2016-12-05T03:04:19.600Z,60.36
2016-12-05T03:04:45.693Z,60.26
2016-12-05T03:05:11.773Z,60.26
2016-12-05T03:05:37.856Z,60.67
2016-12-05T03:06:03.946Z,60.36
2016-12-05T03:06:30.026Z,60.17
2016-12-05T03:06:56.106Z,60.29
2016-12-05T03:07:22.202Z,60.19
2016-12-05T03:07:48.288Z,60.38
2016-12-05T03:08:14.363Z,60
2016-12-05T03:08:40.455Z,60.48
2016-12-05T03:09:06.541Z,59.72
2016-12-05T03:09:32.629Z,59.91
2016-12-05T03:09:58.709Z,59.63
2016-12-05T03:10:24.788Z,59.34
2016-12-05T03:10:50.885Z,58.78
2016-12-05T03:11:16.997Z,58.56
2016-12-05T03:11:43.077Z,58.84
2016-12-05T03:12:09.170Z,59.12
2016-12-05T03:12:35.258Z,58.65
2016-12-05T03:13:01.336Z,58.75
2016-12-05T03:13:27.426Z,59.31
2016-12-05T03:13:53.520Z,59.41
2016-12-05T03:14:19.595Z,59.12
2016-12-05T03:14:45.685Z,59.79
2016-12-05T03:15:11.768Z,60.07
2016-12-05T03:15:37.869Z,60.45
2016-12-05T03:16:03.966Z,60.55
2016-12-05T03:16:30.041Z,60.64
2016-12-05T03:16:56.135Z,60.55
2016-12-05T03:17:22.229Z,60.36
2016-12-05T03:17:48.306Z,60.17
2016-12-05T03:18:14.394Z,60.36
2016-12-05T03:18:40.491Z,60.45
2016-12-05T03:19:06.569Z,60.07
2016-12-05T03:19:34.072Z,60.45
2016-12-05T03:20:00.146Z,60.36
2016-12-05T03:20:26.238Z,60.74
2016-12-05T03:20:52.318Z,60.74
2016-12-05T03:21:18.410Z,60.45
2016-12-05T03:21:44.502Z,60.36
2016-12-05T03:22:10.583Z,59.88
2016-12-05T03:22:36.681Z,59.98
2016-12-05T03:23:02.768Z,59.88
2016-12-05T03:23:28.848Z,59.88
2016-12-05T03:23:54.943Z,60.45
2016-12-05T03:24:21.037Z,60.17
2016-12-05T03:24:47.113Z,60.36
2016-12-05T03:25:13.202Z,60.07
2016-12-05T03:25:39.298Z,60.26
2016-12-05T03:26:05.378Z,60.07
2016-12-05T03:26:31.471Z,60.55
2016-12-05T03:26:57.553Z,60.07
2016-12-05T03:27:23.641Z,60.19
2016-12-05T03:27:49.733Z,60.1
2016-12-05T03:28:15.812Z,60.1
2016-12-05T03:28:41.897Z,59.53
2016-12-05T03:29:07.986Z,59.53
2016-12-05T03:29:34.064Z,59.22
2016-12-05T03:30:00.150Z,59.03
2016-12-05T03:30:26.248Z,59.22
2016-12-05T03:30:52.331Z,59.88
2016-12-05T03:31:18.411Z,59.5
2016-12-05T03:31:44.504Z,59.79
2016-12-05T03:32:10.590Z,59.5
2016-12-05T03:32:36.682Z,59.41
2016-12-05T03:33:02.769Z,59.03
2016-12-05T03:33:28.856Z,58.65
2016-12-05T03:33:54.951Z,58.65
2016-12-05T03:34:21.042Z,58.56
2016-12-05T03:34:47.125Z,58.84
2016-12-05T03:35:13.222Z,58.75
2016-12-05T03:35:39.339Z,58.94
2016-12-05T03:36:05.415Z,59.03
2016-12-05T03:36:31.513Z,59.03
2016-12-05T03:36:57.604Z,59.41
2016-12-05T03:37:23.695Z,59.69
2016-12-05T03:37:49.778Z,59.12
2016-12-05T03:38:15.862Z,59.5
2016-12-05T03:38:41.955Z,59.31
2016-12-05T03:39:08.043Z,59.5
2016-12-05T03:39:34.148Z,59.6
2016-12-05T03:40:00.241Z,60.17
2016-12-05T03:40:26.326Z,60.36
2016-12-05T03:40:52.407Z,60.26
2016-12-05T03:41:18.499Z,60.45
2016-12-05T03:41:44.598Z,60.26
2016-12-05T03:42:10.677Z,60.26
2016-12-05T03:42:36.764Z,60.36
2016-12-05T03:43:02.851Z,60.45
2016-12-05T03:43:28.942Z,60.17
2016-12-05T03:43:55.033Z,59.69
2016-12-05T03:44:21.114Z,59.69
2016-12-05T03:44:47.203Z,59.6
2016-12-05T03:45:13.299Z,59.6
2016-12-05T03:45:39.378Z,59.88
2016-12-05T03:46:05.468Z,59.6
2016-12-05T03:46:31.563Z,60.07
2016-12-05T03:46:57.646Z,59.79
2016-12-05T03:47:23.731Z,59.91
2016-12-05T03:47:49.830Z,59.91
2016-12-05T03:48:15.911Z,59.25
2016-12-05T03:48:41.994Z,59.34
2016-12-05T03:49:08.092Z,59.44
2016-12-05T03:49:34.177Z,59.53
2016-12-05T03:50:00.254Z,59.44
2016-12-05T03:50:26.345Z,59.53
2016-12-05T03:50:52.434Z,59.34
2016-12-05T03:51:18.514Z,59.53
2016-12-05T03:51:44.609Z,59.72
2016-12-05T03:52:10.701Z,59.44
2016-12-05T03:52:36.776Z,59.16
2016-12-05T03:53:02.867Z,58.97
2016-12-05T03:53:28.965Z,58.87
2016-12-05T03:53:55.047Z,58.97
2016-12-05T03:54:21.137Z,58.87
2016-12-05T03:54:47.217Z,58.97
2016-12-05T03:55:13.309Z,59.06
2016-12-05T03:55:39.500Z,59.16
2016-12-05T03:56:05.576Z,59.06
2016-12-05T03:56:31.668Z,58.87
2016-12-05T03:56:57.761Z,58.87
2016-12-05T03:57:23.848Z,58.68
2016-12-05T03:57:49.934Z,58.02
2016-12-05T03:58:16.024Z,57.92
2016-12-05T03:58:42.107Z,57.83
2016-12-05T03:59:08.187Z,57.54
2016-12-05T03:59:34.280Z,57.54
2016-12-05T04:00:00.366Z,57.64
2016-12-05T04:00:26.461Z,57.64
2016-12-05T04:00:52.538Z,57.35
2016-12-05T04:01:18.624Z,57.73
2016-12-05T04:01:44.718Z,57.83
2016-12-05T04:02:10.800Z,57.83
2016-12-05T04:02:36.882Z,57.54
2016-12-05T04:03:02.975Z,57.64
2016-12-05T04:03:29.055Z,57.64
2016-12-05T04:03:55.138Z,57.92
2016-12-05T04:04:21.231Z,57.64
2016-12-05T04:04:47.324Z,57.64
2016-12-05T04:05:13.413Z,57.54
2016-12-05T04:05:39.502Z,58.02
2016-12-05T04:06:05.606Z,57.92
2016-12-05T04:06:31.702Z,58.02
2016-12-05T04:06:57.795Z,58.02
2016-12-05T04:07:23.876Z,58.11
2016-12-05T04:07:49.975Z,57.92
2016-12-05T04:08:16.057Z,58.02
2016-12-05T04:08:42.136Z,57.92
2016-12-05T04:09:08.231Z,58.02
2016-12-05T04:09:34.330Z,58.11
2016-12-05T04:10:00.408Z,58.21
2016-12-05T04:10:26.499Z,58.21
2016-12-05T04:10:52.584Z,57.54
2016-12-05T04:11:18.681Z,56.98
2016-12-05T04:11:44.771Z,57.23
2016-12-05T04:12:10.850Z,56.95
2016-12-05T04:12:36.943Z,57.73
2016-12-05T04:13:03.037Z,57.33
2016-12-05T04:13:29.120Z,57.42
2016-12-05T04:13:55.209Z,57.52
2016-12-05T04:14:21.309Z,57.52
2016-12-05T04:14:47.389Z,57.61
2016-12-05T04:15:13.474Z,57.99
2016-12-05T04:15:39.569Z,57.9
2016-12-05T04:16:05.652Z,58.18
2016-12-05T04:16:31.755Z,58.28
2016-12-05T04:16:57.832Z,57.8
2016-12-05T04:17:23.926Z,58.47
2016-12-05T04:17:50.024Z,58.56
2016-12-05T04:18:16.106Z,58.56
2016-12-05T04:18:42.194Z,58.84
2016-12-05T04:19:08.289Z,58.84
2016-12-05T04:19:34.372Z,58.68
2016-12-05T04:20:00.456Z,58.87
2016-12-05T04:20:26.578Z,58.4
2016-12-05T04:20:52.661Z,58.11
2016-12-05T04:21:18.744Z,57.83
2016-12-05T04:21:44.838Z,58.11
2016-12-05T04:22:10.914Z,57.83
2016-12-05T04:22:37.012Z,58.11
2016-12-05T04:23:03.095Z,57.73
2016-12-05T04:23:29.174Z,58.4
2016-12-05T04:23:55.271Z,58.11
2016-12-05T04:24:21.349Z,58.21
2016-12-05T04:24:47.427Z,58.21
2016-12-05T04:25:13.524Z,58.21
2016-12-05T04:25:39.616Z,58.21
2016-12-05T04:26:05.801Z,58.49
2016-12-05T04:26:31.900Z,58.59
2016-12-05T04:26:57.994Z,58.21
2016-12-05T04:27:24.099Z,58.3
2016-12-05T04:27:50.186Z,57.83
2016-12-05T04:28:16.259Z,58.49
2016-12-05T04:28:42.355Z,58.21
2016-12-05T04:29:08.442Z,58.11
2016-12-05T04:29:34.524Z,57.92
2016-12-05T04:30:00.617Z,57.83
2016-12-05T04:30:26.712Z,58.02
2016-12-05T04:30:52.791Z,58.4
2016-12-05T04:31:18.882Z,57.92
2016-12-05T04:31:44.974Z,58.02
2016-12-05T04:32:11.058Z,57.92
2016-12-05T04:32:37.144Z,57.26
2016-12-05T04:33:03.237Z,57.73
2016-12-05T04:33:29.317Z,57.73
2016-12-05T04:33:55.394Z,57.73
2016-12-05T04:34:21.494Z,57.64
2016-12-05T04:34:47.574Z,57.54
2016-12-05T04:35:13.652Z,57.45
2016-12-05T04:35:39.751Z,57.83
2016-12-05T04:36:05.841Z,57.64
2016-12-05T04:36:31.922Z,57.45
2016-12-05T04:36:58.012Z,57.92
2016-12-05T04:37:24.103Z,57.54
2016-12-05T04:37:50.179Z,57.92
2016-12-05T04:38:16.267Z,57.92
2016-12-05T04:38:42.348Z,57.73
2016-12-05T04:39:08.449Z,58.02
2016-12-05T04:39:34.539Z,57.83
2016-12-05T04:40:00.622Z,57.54
2016-12-05T04:40:26.713Z,57.45
2016-12-05T04:40:52.813Z,57.64
2016-12-05T04:41:18.883Z,57.73
2016-12-05T04:41:44.976Z,57.45
2016-12-05T04:42:11.069Z,57.73
2016-12-05T04:42:37.151Z,57.73
2016-12-05T04:43:03.236Z,57.73
2016-12-05T04:43:29.329Z,57.64
2016-12-05T04:43:55.414Z,58.11
2016-12-05T04:44:21.510Z,57.64
2016-12-05T04:44:47.589Z,58.02
2016-12-05T04:45:13.678Z,57.54
2016-12-05T04:45:39.775Z,57.64
2016-12-05T04:46:05.857Z,57.64
2016-12-05T04:46:31.943Z,57.73
2016-12-05T04:46:58.037Z,57.54
2016-12-05T04:47:24.117Z,57.64
2016-12-05T04:47:50.197Z,57.73
2016-12-05T04:48:16.294Z,57.45
2016-12-05T04:48:42.382Z,57.54
2016-12-05T04:49:08.462Z,57.83
2016-12-05T04:49:34.558Z,57.64
2016-12-05T04:50:00.640Z,57.26
2016-12-05T04:50:26.735Z,57.54
2016-12-05T04:50:52.821Z,57.73
2016-12-05T04:51:18.902Z,57.54
2016-12-05T04:51:44.997Z,57.73
2016-12-05T04:52:11.083Z,57.54
2016-12-05T04:52:37.167Z,57.45
2016-12-05T04:53:03.262Z,57.54
2016-12-05T04:53:29.347Z,57.54
2016-12-05T04:53:55.428Z,57.73
2016-12-05T04:54:21.522Z,57.45
2016-12-05T04:54:47.619Z,57.73
2016-12-05T04:55:13.706Z,57.83
2016-12-05T04:55:39.789Z,57.73
2016-12-05T04:56:05.967Z,57.73
2016-12-05T04:56:32.061Z,57.73
2016-12-05T04:56:58.146Z,57.83
2016-12-05T04:57:24.230Z,57.92
2016-12-05T04:57:50.320Z,57.54
2016-12-05T04:58:16.415Z,57.73
2016-12-05T04:58:42.499Z,58.11
2016-12-05T04:59:08.587Z,57.92
2016-12-05T04:59:34.678Z,58.21
2016-12-05T05:00:00.758Z,58.21
2016-12-05T05:00:26.842Z,58.21
2016-12-05T05:00:52.924Z,58.02
2016-12-05T05:01:19.318Z,58.11
2016-12-05T05:01:45.413Z,58.4
2016-12-05T05:02:11.496Z,58.68
2016-12-05T05:02:37.584Z,58.97
2016-12-05T05:03:03.683Z,58.68
2016-12-05T05:03:29.768Z,59.06
2016-12-05T05:03:55.857Z,58.59
2016-12-05T05:04:21.949Z,58.78
2016-12-05T05:04:48.028Z,58.87
2016-12-05T05:05:14.111Z,58.87
2016-12-05T05:05:40.207Z,58.68
2016-12-05T05:06:06.290Z,58.59
2016-12-05T05:06:32.383Z,59.16
2016-12-05T05:06:58.461Z,59.25
2016-12-05T05:07:24.548Z,58.87
2016-12-05T05:07:50.643Z,59.34
2016-12-05T05:08:16.745Z,58.68
2016-12-05T05:08:42.830Z,58.78
2016-12-05T05:09:08.954Z,58.87
2016-12-05T05:09:35.040Z,58.87
2016-12-05T05:10:01.118Z,58.87
2016-12-05T05:10:27.215Z,58.97
2016-12-05T05:10:53.298Z,58.87
2016-12-05T05:11:19.378Z,59.34
2016-12-05T05:11:45.469Z,59.16
2016-12-05T05:12:11.546Z,59.06
2016-12-05T05:12:37.640Z,59.25
2016-12-05T05:13:03.728Z,59.16
2016-12-05T05:13:29.811Z,58.97
2016-12-05T05:13:55.906Z,59.34
2016-12-05T05:14:21.994Z,58.87
2016-12-05T05:14:48.079Z,59.16
2016-12-05T05:15:14.171Z,58.87
2016-12-05T05:15:40.267Z,59.44
2016-12-05T05:16:06.340Z,59.34
2016-12-05T05:16:32.431Z,59.25
2016-12-05T05:16:58.524Z,59.25
2016-12-05T05:17:24.612Z,59.34
2016-12-05T05:17:50.701Z,59.91
2016-12-05T05:18:16.799Z,59.72
2016-12-05T05:18:42.881Z,59.81
2016-12-05T05:19:08.966Z,59.81
2016-12-05T05:19:35.060Z,59.72
2016-12-05T05:20:01.145Z,59.81
2016-12-05T05:20:27.221Z,59.06
2016-12-05T05:20:53.318Z,59.34
2016-12-05T05:21:19.436Z,59.16
2016-12-05T05:21:45.516Z,58.78
2016-12-05T05:22:11.607Z,58.68
2016-12-05T05:22:37.703Z,58.97
2016-12-05T05:23:03.785Z,58.21
2016-12-05T05:23:29.871Z,57.83
2016-12-05T05:23:55.955Z,57.64
2016-12-05T05:24:22.053Z,57.73
2016-12-05T05:24:48.141Z,57.73
2016-12-05T05:25:14.223Z,57.73
2016-12-05T05:25:40.318Z,57.54
2016-12-05T05:26:06.415Z,57.64
2016-12-05T05:26:32.591Z,57.73
2016-12-05T05:26:58.683Z,57.54
2016-12-05T05:27:24.799Z,57.45
2016-12-05T05:27:50.880Z,57.54
2016-12-05T05:28:16.970Z,58.21
2016-12-05T05:28:43.054Z,57.92
2016-12-05T05:29:09.144Z,58.02
2016-12-05T05:29:35.245Z,57.92
2016-12-05T05:30:01.328Z,58.68
2016-12-05T05:30:27.415Z,58.02
2016-12-05T05:30:53.510Z,57.73
2016-12-05T05:31:19.893Z,58.4
2016-12-05T05:31:45.985Z,57.8
2016-12-05T05:32:12.075Z,57.61
2016-12-05T05:32:38.159Z,58.09
2016-12-05T05:33:04.237Z,58.09
2016-12-05T05:33:30.332Z,57.52
2016-12-05T05:33:56.419Z,57.23
2016-12-05T05:34:22.512Z,57.61
2016-12-05T05:34:48.590Z,57.71
2016-12-05T05:35:14.679Z,58.65
2016-12-05T05:35:40.772Z,58.56
2016-12-05T05:36:06.854Z,57.9
2016-12-05T05:36:32.938Z,58.09
2016-12-05T05:36:59.034Z,57.52